createdAt,value
2022-08-03T00:01:11.316Z,5.00
2022-08-03T00:06:36.992Z,6.95
2022-08-03T00:11:59.651Z,5.00
2022-08-03T00:17:22.288Z,4.68
2022-08-03T00:22:44.845Z,5.53
2022-08-03T00:28:08.618Z,6.05
2022-08-03T00:33:30.816Z,4.05
2022-08-03T00:39:13.298Z,3.85
2022-08-03T00:44:43.904Z,5.68
2022-08-03T00:50:06.569Z,6.18
2022-08-03T00:55:31.270Z,3.60
2022-08-03T01:00:55.108Z,4.85
2022-08-03T01:06:20.124Z,4.07
2022-08-03T01:11:59.981Z,4.88
2022-08-03T01:17:49.448Z,4.67
2022-08-03T01:23:49.216Z,3.90
2022-08-03T01:29:44.929Z,7.30
2022-08-03T01:35:13.952Z,5.47
2022-08-03T01:40:39.583Z,3.58
2022-08-03T01:46:03.457Z,5.28
2022-08-03T01:51:56.150Z,3.47
2022-08-03T01:57:09.945Z,4.40
2022-08-03T02:02:34.775Z,4.38
2022-08-03T02:07:57.851Z,3.72
2022-08-03T02:13:21.300Z,6.07
2022-08-03T02:18:43.946Z,3.92
2022-08-03T02:24:06.740Z,4.03
2022-08-03T02:29:39.964Z,3.97
2022-08-03T02:35:06.126Z,5.15
2022-08-03T02:40:33.218Z,4.18
2022-08-03T02:45:55.757Z,4.55
2022-08-03T02:51:21.414Z,3.90
2022-08-03T02:56:45.446Z,5.00
2022-08-03T03:02:08.147Z,5.93
2022-08-03T03:07:34.650Z,6.85
2022-08-03T03:13:15.923Z,5.47
2022-08-03T03:18:39.825Z,4.10
2022-08-03T03:24:02.568Z,4.72
2022-08-03T03:29:25.014Z,5.45
2022-08-03T03:34:48.156Z,8.45
2022-08-03T03:40:11.783Z,5.03
2022-08-03T03:45:35.714Z,4.00
2022-08-03T03:50:59.382Z,5.57
2022-08-03T03:56:21.856Z,6.07
2022-08-03T04:01:44.776Z,4.68
2022-08-03T04:07:25.524Z,5.95
2022-08-03T04:12:51.235Z,5.50
2022-08-03T04:18:15.668Z,4.53
2022-08-03T04:23:44.972Z,7.80
2022-08-03T04:29:09.402Z,8.07
2022-08-03T04:34:32.012Z,9.55
2022-08-03T04:39:57.942Z,4.82
2022-08-03T04:45:21.578Z,6.60
2022-08-03T04:50:44.719Z,6.15
2022-08-03T04:56:07.741Z,6.22
2022-08-03T05:01:30.071Z,5.60
2022-08-03T05:06:55.193Z,8.43
2022-08-03T05:12:18.421Z,8.35
2022-08-03T05:17:41.044Z,10.13
2022-08-03T05:23:04.105Z,17.88
2022-08-03T05:28:26.622Z,21.48
2022-08-03T05:33:49.414Z,11.50
2022-08-03T05:39:11.955Z,8.45
2022-08-03T05:44:34.474Z,7.57
2022-08-03T05:49:58.972Z,4.15
2022-08-03T05:55:21.414Z,5.03
2022-08-03T06:00:44.002Z,4.95
2022-08-03T06:06:06.490Z,4.00
2022-08-03T06:11:28.935Z,7.05
2022-08-03T06:16:51.320Z,6.63
2022-08-03T06:22:14.097Z,4.53
2022-08-03T06:27:40.186Z,4.93
2022-08-03T06:33:02.678Z,7.47
2022-08-03T06:38:25.181Z,6.38
2022-08-03T06:44:03.202Z,8.55
2022-08-03T06:49:27.487Z,5.30
2022-08-03T06:54:49.931Z,5.32
2022-08-03T07:00:12.954Z,7.68
2022-08-03T07:05:35.627Z,2.70
2022-08-03T07:10:58.105Z,5.25
2022-08-03T07:16:20.715Z,3.88
2022-08-03T07:21:43.168Z,4.93
2022-08-03T07:27:05.660Z,3.25
2022-08-03T07:32:31.711Z,3.22
2022-08-03T07:37:55.236Z,6.47
2022-08-03T07:43:17.819Z,4.78
2022-08-03T07:48:40.554Z,6.70
2022-08-03T07:54:03.448Z,3.85
2022-08-03T07:59:25.875Z,6.60
2022-08-03T08:04:48.567Z,3.72
2022-08-03T08:10:11.234Z,4.43
2022-08-03T08:15:33.402Z,4.10
2022-08-03T08:20:55.915Z,5.13
2022-08-03T08:26:18.682Z,2.97
2022-08-03T08:31:40.870Z,5.18
2022-08-03T08:37:03.955Z,2.72
2022-08-03T08:42:26.482Z,4.85
2022-08-03T08:47:51.181Z,2.53
2022-08-03T08:53:17.360Z,3.50
2022-08-03T08:58:44.703Z,3.30
2022-08-03T09:04:07.627Z,3.35
2022-08-03T09:10:10.759Z,2.20
2022-08-03T09:15:33.460Z,2.42
2022-08-03T09:21:30.194Z,3.83
2022-08-03T09:26:54.016Z,3.60
2022-08-03T09:32:25.428Z,3.83
2022-08-03T09:38:14.939Z,3.90
2022-08-03T09:43:46.857Z,2.10
2022-08-03T09:49:11.624Z,2.55
2022-08-03T09:54:34.432Z,1.95
2022-08-03T10:00:13.472Z,2.05
2022-08-03T10:05:36.233Z,3.17
2022-08-03T10:10:59.948Z,1.90
2022-08-03T10:16:25.582Z,2.03
2022-08-03T10:21:53.723Z,1.77
2022-08-03T10:27:20.170Z,3.65
2022-08-03T10:33:49.919Z,2.53
2022-08-03T10:38:57.903Z,1.77
2022-08-03T10:44:23.350Z,1.90
2022-08-03T10:49:49.176Z,1.80
2022-08-03T10:56:08.731Z,2.22
2022-08-03T11:01:59.236Z,1.45
2022-08-03T11:07:25.398Z,1.70
2022-08-03T11:12:48.260Z,1.45
2022-08-03T11:18:11.959Z,1.63
2022-08-03T11:24:04.049Z,1.42
2022-08-03T11:29:29.987Z,2.15
2022-08-03T11:35:11.854Z,2.28
2022-08-03T11:40:50.372Z,2.47
2022-08-03T11:46:28.631Z,1.48
2022-08-03T11:51:55.494Z,1.70
2022-08-03T11:58:58.315Z,2.33
2022-08-03T12:03:21.428Z,2.05
2022-08-03T12:08:45.083Z,3.13
2022-08-03T12:14:49.088Z,1.70
2022-08-03T12:19:50.308Z,1.60
2022-08-03T12:25:25.817Z,1.92
2022-08-03T12:31:09.426Z,1.88
2022-08-03T12:36:34.000Z,1.67
2022-08-03T12:41:57.136Z,2.08
2022-08-03T12:47:19.649Z,1.70
2022-08-03T12:52:46.467Z,3.92
2022-08-03T12:58:13.656Z,2.63
2022-08-03T13:03:43.624Z,1.85
2022-08-03T13:09:08.555Z,2.35
2022-08-03T13:14:31.146Z,2.40
2022-08-03T13:19:54.221Z,2.42
2022-08-03T13:25:17.253Z,1.63
2022-08-03T13:30:40.016Z,2.13
2022-08-03T13:36:02.832Z,2.35
2022-08-03T13:41:31.133Z,1.90
2022-08-03T13:46:53.798Z,3.97
2022-08-03T13:52:16.148Z,1.70
2022-08-03T13:58:04.847Z,1.80
2022-08-03T14:03:21.463Z,3.00
2022-08-03T14:08:44.120Z,2.00
2022-08-03T14:14:06.277Z,3.40
2022-08-03T14:19:28.602Z,4.32
2022-08-03T14:24:51.174Z,1.42
2022-08-03T14:30:14.034Z,3.92
2022-08-03T14:35:36.829Z,1.92
2022-08-03T14:40:59.505Z,1.70
2022-08-03T14:46:21.840Z,1.70
2022-08-03T14:51:51.671Z,1.67
2022-08-03T14:57:16.287Z,5.55
2022-08-03T15:02:38.629Z,1.80
2022-08-03T15:08:00.995Z,2.22
2022-08-03T15:13:25.400Z,3.60
2022-08-03T15:18:47.823Z,3.42
2022-08-03T15:24:10.344Z,1.65
2022-08-03T15:30:07.360Z,2.17
2022-08-03T15:35:15.515Z,2.45
2022-08-03T15:40:38.119Z,1.88
2022-08-03T15:46:28.183Z,3.60
2022-08-03T15:51:42.757Z,1.45
2022-08-03T15:57:05.048Z,1.60
2022-08-03T16:02:27.400Z,1.55
2022-08-03T16:08:02.721Z,2.03
2022-08-03T16:14:13.749Z,2.28
2022-08-03T16:19:10.324Z,1.52
2022-08-03T16:24:33.008Z,3.00
2022-08-03T16:29:55.888Z,2.20
2022-08-03T16:35:19.573Z,4.57
2022-08-03T16:40:43.791Z,1.98
2022-08-03T16:46:06.039Z,1.45
2022-08-03T16:51:28.543Z,1.35
2022-08-03T16:57:02.943Z,1.95
2022-08-03T17:02:28.023Z,1.48
2022-08-03T17:07:50.814Z,1.35
2022-08-03T17:13:21.833Z,1.30
2022-08-03T17:18:58.378Z,2.40
2022-08-03T17:24:31.264Z,1.42
2022-08-03T17:30:01.478Z,3.25
2022-08-03T17:35:36.619Z,1.63
2022-08-03T17:41:01.299Z,3.38
2022-08-03T17:46:34.200Z,1.50
2022-08-03T17:51:59.967Z,3.60
2022-08-03T17:58:00.054Z,4.90
2022-08-03T18:03:57.713Z,2.80
2022-08-03T18:10:03.771Z,3.13
2022-08-03T18:15:08.649Z,3.00
2022-08-03T18:20:45.663Z,1.75
2022-08-03T18:26:12.108Z,1.85
2022-08-03T18:32:02.277Z,2.30
2022-08-03T18:37:24.949Z,4.20
2022-08-03T18:42:52.830Z,4.55
2022-08-03T18:48:46.556Z,6.32
2022-08-03T18:54:45.494Z,3.42
2022-08-03T19:00:14.065Z,3.55
2022-08-03T19:06:02.336Z,2.97
2022-08-03T19:12:12.302Z,6.20
2022-08-03T19:17:29.257Z,8.63
2022-08-03T19:22:53.875Z,9.38
2022-08-03T19:28:17.960Z,11.10
2022-08-03T19:33:56.056Z,8.82
2022-08-03T19:39:20.152Z,5.05
2022-08-03T19:44:50.138Z,9.07
2022-08-03T19:50:15.901Z,4.85
2022-08-03T19:55:46.399Z,4.82
2022-08-03T20:01:19.472Z,6.05
2022-08-03T20:06:45.248Z,11.57
2022-08-03T20:12:09.938Z,6.50
2022-08-03T20:17:57.050Z,4.95
2022-08-03T20:23:19.201Z,3.63
2022-08-03T20:28:50.644Z,4.80
2022-08-03T20:34:13.474Z,4.30
2022-08-03T20:39:40.464Z,6.78
2022-08-03T20:45:12.961Z,5.43
2022-08-03T20:50:38.579Z,4.78
2022-08-03T20:56:02.279Z,3.67
2022-08-03T21:01:27.506Z,6.45
2022-08-03T21:07:02.775Z,6.85
2022-08-03T21:12:43.907Z,7.20
2022-08-03T21:18:12.189Z,5.95
2022-08-03T21:23:48.648Z,4.18
2022-08-03T21:29:14.231Z,8.98
2022-08-03T21:34:36.911Z,5.45
2022-08-03T21:40:00.136Z,3.65
2022-08-03T21:45:22.500Z,3.80
2022-08-03T21:50:47.081Z,4.88
2022-08-03T21:56:12.735Z,4.25
2022-08-03T22:01:39.731Z,5.43
2022-08-03T22:07:02.290Z,4.13
2022-08-03T22:12:30.862Z,3.97
2022-08-03T22:17:57.137Z,3.63
2022-08-03T22:23:22.599Z,3.90
2022-08-03T22:28:45.242Z,5.50
2022-08-03T22:34:09.376Z,4.88
2022-08-03T22:39:31.816Z,6.43
2022-08-03T22:44:55.223Z,3.92
2022-08-03T22:50:32.293Z,4.38
2022-08-03T22:55:56.877Z,4.00
2022-08-03T23:01:23.420Z,4.40
2022-08-03T23:06:50.832Z,4.82
2022-08-03T23:12:19.915Z,3.45
2022-08-03T23:17:58.266Z,7.15
2022-08-03T23:23:21.045Z,6.93
2022-08-03T23:28:46.762Z,4.45
2022-08-03T23:34:32.122Z,4.65
2022-08-03T23:39:57.010Z,4.80
2022-08-03T23:45:20.808Z,4.85
2022-08-03T23:50:47.814Z,3.92
2022-08-03T23:56:35.385Z,5.15
